createdAt,value
2022-08-11T00:01:25.180Z,94.50
2022-08-11T00:03:56.135Z,94.60
2022-08-11T00:06:27.273Z,94.70
2022-08-11T00:08:55.230Z,94.80
2022-08-11T00:11:31.512Z,94.80
2022-08-11T00:13:59.504Z,95.00
2022-08-11T00:16:26.827Z,95.00
2022-08-11T00:18:56.536Z,95.00
2022-08-11T00:21:54.582Z,95.10
2022-08-11T00:24:13.201Z,95.10
2022-08-11T00:26:39.935Z,95.10
2022-08-11T00:29:11.671Z,95.20
2022-08-11T00:31:43.531Z,95.30
2022-08-11T00:34:16.156Z,95.30
2022-08-11T00:37:06.288Z,95.30
2022-08-11T00:39:36.547Z,95.40
2022-08-11T00:42:40.890Z,95.40
2022-08-11T00:45:30.199Z,95.40
2022-08-11T00:48:19.832Z,95.50
2022-08-11T00:51:23.781Z,95.50
2022-08-11T00:54:12.022Z,95.50
2022-08-11T00:57:37.482Z,95.50
2022-08-11T01:00:13.359Z,95.60
2022-08-11T01:02:56.994Z,95.40
2022-08-11T01:05:38.927Z,95.50
2022-08-11T01:08:23.308Z,95.50
2022-08-11T01:11:17.535Z,95.50
2022-08-11T01:14:34.038Z,95.50
2022-08-11T01:17:28.866Z,95.50
2022-08-11T01:20:47.678Z,95.50
2022-08-11T01:23:31.274Z,95.60
2022-08-11T01:26:27.542Z,95.70
2022-08-11T01:29:24.357Z,95.60
2022-08-11T01:32:08.925Z,96.00
2022-08-11T01:35:03.489Z,95.70
2022-08-11T01:38:07.489Z,95.60
2022-08-11T01:40:52.284Z,95.70
2022-08-11T01:44:13.239Z,95.70
2022-08-11T01:46:50.244Z,95.70
2022-08-11T01:50:07.304Z,95.70
2022-08-11T01:53:05.808Z,95.70
2022-08-11T01:55:42.627Z,95.60
2022-08-11T01:58:44.596Z,95.70
2022-08-11T02:01:25.285Z,95.70
2022-08-11T02:04:50.576Z,95.90
2022-08-11T02:07:54.355Z,95.90
2022-08-11T02:10:56.728Z,96.00
2022-08-11T02:13:49.165Z,96.10
2022-08-11T02:16:48.891Z,96.00
2022-08-11T02:19:36.839Z,96.20
2022-08-11T02:22:29.491Z,96.20
2022-08-11T02:25:05.111Z,96.30
2022-08-11T02:27:50.106Z,96.30
2022-08-11T02:30:24.237Z,96.30
2022-08-11T02:33:25.117Z,96.30
2022-08-11T02:36:00.547Z,96.40
2022-08-11T02:38:55.963Z,96.50
2022-08-11T02:41:58.317Z,96.50
2022-08-11T02:44:31.473Z,96.50
2022-08-11T02:47:19.408Z,96.50
2022-08-11T02:50:06.593Z,96.50
2022-08-11T02:52:54.881Z,96.60
2022-08-11T02:55:47.973Z,96.70
2022-08-11T02:59:14.869Z,96.70
2022-08-11T03:01:50.334Z,96.60
2022-08-11T03:04:52.292Z,96.70
2022-08-11T03:07:29.130Z,96.70
2022-08-11T03:10:04.294Z,96.70
2022-08-11T03:13:15.622Z,96.70
2022-08-11T03:16:08.412Z,96.70
2022-08-11T03:18:42.642Z,96.60
2022-08-11T03:21:21.983Z,96.60
2022-08-11T03:24:01.658Z,96.60
2022-08-11T03:26:54.894Z,96.70
2022-08-11T03:29:33.988Z,96.70
2022-08-11T03:32:11.520Z,96.70
2022-08-11T03:34:45.445Z,96.70
2022-08-11T03:37:38.296Z,96.70
2022-08-11T03:40:41.359Z,96.70
2022-08-11T03:43:24.066Z,96.70
2022-08-11T03:46:16.869Z,96.80
2022-08-11T03:48:53.279Z,96.90
2022-08-11T03:51:52.170Z,96.80
2022-08-11T03:54:38.092Z,96.80
2022-08-11T03:57:45.186Z,96.90
2022-08-11T04:00:23.845Z,96.90
2022-08-11T04:03:09.463Z,96.90
2022-08-11T04:05:39.184Z,97.10
2022-08-11T04:08:58.384Z,97.00
2022-08-11T04:12:04.419Z,97.10
2022-08-11T04:15:18.439Z,97.10
2022-08-11T04:18:16.022Z,97.10
2022-08-11T04:21:15.565Z,97.20
2022-08-11T04:24:34.526Z,97.20
2022-08-11T04:27:37.357Z,97.20
2022-08-11T04:30:14.877Z,97.20
2022-08-11T04:33:04.896Z,97.20
2022-08-11T04:35:39.351Z,97.30
2022-08-11T04:38:33.341Z,97.30
2022-08-11T04:41:03.989Z,97.50
2022-08-11T04:44:07.742Z,97.50
2022-08-11T04:46:53.132Z,97.90
2022-08-11T04:50:02.720Z,97.50
2022-08-11T04:53:12.750Z,97.60
2022-08-11T04:56:39.247Z,97.90
2022-08-11T05:00:03.415Z,97.70
2022-08-11T05:02:48.664Z,97.80
2022-08-11T05:05:56.481Z,97.70
2022-08-11T05:09:03.748Z,97.80
2022-08-11T05:11:59.530Z,97.80
2022-08-11T05:14:59.882Z,97.70
2022-08-11T05:17:55.849Z,97.80
2022-08-11T05:20:44.947Z,97.80
2022-08-11T05:23:31.651Z,97.60
2022-08-11T05:26:46.219Z,97.50
2022-08-11T05:29:54.868Z,97.40
2022-08-11T05:32:42.040Z,97.20
2022-08-11T05:35:09.877Z,97.20
2022-08-11T05:38:03.288Z,97.10
2022-08-11T05:40:51.123Z,97.00
2022-08-11T05:43:39.143Z,97.00
2022-08-11T05:46:47.128Z,97.00
2022-08-11T05:49:33.439Z,97.00
2022-08-11T05:52:21.426Z,97.00
2022-08-11T05:55:24.054Z,97.00
2022-08-11T05:58:01.995Z,97.00
2022-08-11T06:00:30.073Z,96.90
2022-08-11T06:03:01.237Z,96.80
2022-08-11T06:05:38.560Z,96.70
2022-08-11T06:08:13.437Z,96.40
2022-08-11T06:10:43.269Z,96.30
2022-08-11T06:13:14.510Z,96.10
2022-08-11T06:15:47.250Z,96.00
2022-08-11T06:18:15.301Z,95.80
2022-08-11T06:20:54.776Z,95.70
2022-08-11T06:23:25.852Z,95.50
2022-08-11T06:25:56.550Z,95.30
2022-08-11T06:28:36.063Z,95.10
2022-08-11T06:31:12.018Z,94.90
2022-08-11T06:34:01.182Z,94.70
2022-08-11T06:36:49.034Z,94.50
2022-08-11T06:39:43.328Z,94.40
2022-08-11T06:42:32.686Z,94.30
2022-08-11T06:45:18.901Z,94.00
2022-08-11T06:47:52.411Z,93.80
2022-08-11T06:50:39.872Z,93.50
2022-08-11T06:53:10.587Z,93.50
2022-08-11T06:56:08.126Z,93.20
2022-08-11T06:58:59.068Z,92.90
2022-08-11T07:01:56.233Z,92.80
2022-08-11T07:04:43.175Z,92.90
2022-08-11T07:07:50.048Z,92.40
2022-08-11T07:10:47.089Z,92.00
2022-08-11T07:13:44.416Z,92.00
2022-08-11T07:16:19.276Z,91.90
2022-08-11T07:19:18.243Z,91.90
2022-08-11T07:22:04.943Z,91.90
2022-08-11T07:25:03.456Z,91.80
2022-08-11T07:28:05.350Z,91.50
2022-08-11T07:30:34.537Z,91.10
2022-08-11T07:33:03.722Z,91.30
2022-08-11T07:35:48.170Z,91.20
2022-08-11T07:38:47.731Z,91.10
2022-08-11T07:41:16.237Z,90.80
2022-08-11T07:43:45.033Z,90.60
2022-08-11T07:46:31.102Z,90.20
2022-08-11T07:49:17.103Z,89.80
2022-08-11T07:52:03.647Z,90.00
2022-08-11T07:54:33.437Z,89.30
2022-08-11T07:58:01.213Z,88.90
2022-08-11T08:00:29.908Z,87.80
2022-08-11T08:03:18.047Z,87.10
2022-08-11T08:06:05.607Z,86.80
2022-08-11T08:09:01.130Z,86.00
2022-08-11T08:11:47.132Z,86.00
2022-08-11T08:14:32.596Z,85.60
2022-08-11T08:17:19.141Z,84.70
2022-08-11T08:19:49.423Z,84.10
2022-08-11T08:22:37.484Z,83.70
2022-08-11T08:25:07.518Z,84.10
2022-08-11T08:27:35.890Z,82.90
2022-08-11T08:30:23.661Z,82.10
2022-08-11T08:32:51.884Z,82.10
2022-08-11T08:35:19.924Z,81.30
2022-08-11T08:37:47.835Z,80.90
2022-08-11T08:40:15.259Z,80.20
2022-08-11T08:42:54.918Z,79.90
2022-08-11T08:45:27.651Z,79.70
2022-08-11T08:48:11.709Z,79.30
2022-08-11T08:51:03.651Z,78.10
2022-08-11T08:53:35.769Z,79.10
2022-08-11T08:56:03.589Z,78.30
2022-08-11T08:58:31.208Z,77.80
2022-08-11T09:00:59.427Z,77.00
2022-08-11T09:04:04.903Z,77.20
2022-08-11T09:06:17.218Z,75.80
2022-08-11T09:08:45.521Z,74.80
2022-08-11T09:11:32.871Z,74.10
2022-08-11T09:14:05.075Z,74.30
2022-08-11T09:16:36.105Z,73.50
2022-08-11T09:19:04.182Z,72.60
2022-08-11T09:21:44.573Z,72.30
2022-08-11T09:24:37.082Z,71.90
2022-08-11T09:27:08.565Z,71.70
2022-08-11T09:29:38.051Z,69.90
2022-08-11T09:32:07.166Z,70.00
2022-08-11T09:34:36.687Z,69.40
2022-08-11T09:37:53.670Z,69.20
2022-08-11T09:40:30.063Z,66.90
2022-08-11T09:43:21.810Z,66.40
2022-08-11T09:45:51.845Z,65.90
2022-08-11T09:48:20.354Z,65.60
2022-08-11T09:50:50.971Z,66.10
2022-08-11T09:53:37.140Z,64.20
2022-08-11T09:56:35.784Z,64.90
2022-08-11T09:59:04.585Z,64.30
2022-08-11T10:01:47.332Z,62.20
2022-08-11T10:04:23.157Z,62.20
2022-08-11T10:07:01.878Z,60.20
2022-08-11T10:09:37.108Z,60.60
2022-08-11T10:12:09.194Z,59.60
2022-08-11T10:15:00.824Z,60.40
2022-08-11T10:17:34.155Z,59.50
2022-08-11T10:20:05.925Z,58.10
2022-08-11T10:22:52.871Z,56.50
2022-08-11T10:25:39.992Z,56.80
2022-08-11T10:28:30.481Z,55.80
2022-08-11T10:31:15.582Z,55.40
2022-08-11T10:34:01.546Z,54.70
2022-08-11T10:36:35.464Z,53.80
2022-08-11T10:39:04.937Z,54.20
2022-08-11T10:42:08.644Z,54.30
2022-08-11T10:44:48.395Z,53.70
2022-08-11T10:47:34.722Z,53.90
2022-08-11T10:50:22.431Z,51.80
2022-08-11T10:53:09.865Z,51.50
2022-08-11T10:55:58.658Z,51.50
2022-08-11T10:58:46.278Z,49.90
2022-08-11T11:01:14.924Z,49.70
2022-08-11T11:03:43.773Z,51.30
2022-08-11T11:06:13.316Z,50.70
2022-08-11T11:09:11.248Z,49.90
2022-08-11T11:12:02.235Z,49.10
2022-08-11T11:14:53.739Z,48.80
2022-08-11T11:17:50.593Z,49.50
2022-08-11T11:20:36.017Z,49.10
2022-08-11T11:23:38.184Z,48.10
2022-08-11T11:26:11.048Z,49.60
2022-08-11T11:29:11.018Z,48.30
2022-08-11T11:31:48.170Z,47.00
2022-08-11T11:34:23.985Z,46.60
2022-08-11T11:36:56.441Z,45.90
2022-08-11T11:39:26.279Z,44.70
2022-08-11T11:42:01.847Z,44.60
2022-08-11T11:44:29.411Z,45.50
2022-08-11T11:46:56.942Z,45.40
2022-08-11T11:49:27.305Z,45.40
2022-08-11T11:51:55.409Z,44.60
2022-08-11T11:54:25.139Z,44.70
2022-08-11T11:56:53.328Z,45.00
2022-08-11T11:59:41.369Z,46.30
2022-08-11T12:02:11.967Z,46.10
2022-08-11T12:04:44.627Z,46.20
2022-08-11T12:07:30.701Z,45.50
2022-08-11T12:09:58.704Z,43.50
2022-08-11T12:12:44.669Z,43.70
2022-08-11T12:15:12.805Z,44.30
2022-08-11T12:17:40.485Z,45.30
2022-08-11T12:20:16.859Z,45.00
2022-08-11T12:23:15.347Z,44.30
2022-08-11T12:26:25.990Z,43.70
2022-08-11T12:28:50.297Z,43.10
2022-08-11T12:31:17.505Z,43.90
2022-08-11T12:33:44.565Z,44.60
2022-08-11T12:36:15.726Z,43.50
2022-08-11T12:38:48.588Z,43.50
2022-08-11T12:41:39.397Z,42.60
2022-08-11T12:44:29.434Z,41.90
2022-08-11T12:46:59.922Z,42.10
2022-08-11T12:49:48.918Z,42.10
2022-08-11T12:52:34.001Z,42.10
2022-08-11T12:55:42.438Z,42.30
2022-08-11T12:58:32.708Z,41.40
2022-08-11T13:01:18.082Z,40.10
2022-08-11T13:04:03.602Z,40.60
2022-08-11T13:06:34.080Z,40.70
2022-08-11T13:09:04.025Z,39.90
2022-08-11T13:11:55.528Z,39.70
2022-08-11T13:14:27.306Z,38.80
2022-08-11T13:17:13.278Z,38.70
2022-08-11T13:19:49.905Z,38.20
2022-08-11T13:22:20.497Z,38.60
2022-08-11T13:24:49.992Z,38.20
2022-08-11T13:27:18.855Z,38.30
2022-08-11T13:29:49.576Z,38.00
2022-08-11T13:32:18.958Z,38.10
2022-08-11T13:34:46.893Z,37.90
2022-08-11T13:37:15.335Z,37.20
2022-08-11T13:39:47.253Z,37.10
2022-08-11T13:42:20.203Z,38.00
2022-08-11T13:44:49.784Z,37.60
2022-08-11T13:47:16.858Z,37.70
2022-08-11T13:49:45.047Z,38.10
2022-08-11T13:52:15.342Z,38.60
2022-08-11T13:54:43.650Z,37.00
2022-08-11T13:58:08.699Z,36.90
2022-08-11T14:00:12.958Z,37.50
2022-08-11T14:02:48.908Z,36.90
2022-08-11T14:05:22.847Z,36.60
2022-08-11T14:07:53.460Z,37.10
2022-08-11T14:10:28.865Z,37.60
2022-08-11T14:13:19.338Z,38.40
2022-08-11T14:15:48.915Z,37.60
2022-08-11T14:18:22.457Z,38.00
2022-08-11T14:21:12.632Z,37.20
2022-08-11T14:23:42.121Z,37.40
2022-08-11T14:26:28.211Z,38.10
2022-08-11T14:29:02.775Z,38.10
2022-08-11T14:31:33.480Z,37.70
2022-08-11T14:34:04.902Z,38.90
2022-08-11T14:36:39.046Z,39.60
2022-08-11T14:39:13.152Z,39.50
2022-08-11T14:42:11.563Z,40.40
2022-08-11T14:45:16.935Z,39.30
2022-08-11T14:48:04.009Z,38.90
2022-08-11T14:50:34.440Z,39.60
2022-08-11T14:53:08.555Z,39.60
2022-08-11T14:56:02.331Z,40.30
2022-08-11T14:58:31.234Z,38.70
2022-08-11T15:01:00.524Z,38.20
2022-08-11T15:03:33.514Z,39.10
2022-08-11T15:06:02.493Z,38.70
2022-08-11T15:08:51.410Z,39.50
2022-08-11T15:11:38.877Z,39.30
2022-08-11T15:14:08.145Z,39.10
2022-08-11T15:16:55.648Z,39.30
2022-08-11T15:19:25.319Z,39.30
2022-08-11T15:22:11.167Z,38.90
2022-08-11T15:24:38.438Z,40.00
2022-08-11T15:27:32.866Z,39.20
2022-08-11T15:30:32.798Z,39.00
2022-08-11T15:33:23.511Z,38.20
2022-08-11T15:36:10.034Z,38.50
2022-08-11T15:38:42.749Z,38.50
2022-08-11T15:41:32.618Z,37.80
2022-08-11T15:44:44.495Z,37.90
2022-08-11T15:47:15.637Z,37.80
2022-08-11T15:50:10.797Z,38.40
2022-08-11T15:52:41.688Z,37.90
2022-08-11T15:55:09.533Z,37.70
2022-08-11T15:57:55.795Z,38.20
2022-08-11T16:00:41.699Z,38.10
2022-08-11T16:03:54.520Z,38.20
2022-08-11T16:06:15.930Z,38.40
2022-08-11T16:08:44.881Z,37.70
2022-08-11T16:11:12.680Z,37.40
2022-08-11T16:13:40.492Z,37.70
2022-08-11T16:16:16.251Z,37.60
2022-08-11T16:18:44.378Z,37.40
2022-08-11T16:21:35.792Z,37.50
2022-08-11T16:27:03.823Z,37.00
2022-08-11T16:27:13.709Z,38.60
2022-08-11T16:29:48.761Z,37.80
2022-08-11T16:32:23.462Z,37.20
2022-08-11T16:35:23.086Z,37.40
2022-08-11T16:38:12.201Z,38.50
2022-08-11T16:40:40.044Z,38.90
2022-08-11T16:43:28.286Z,39.10
2022-08-11T16:46:15.076Z,38.40
2022-08-11T16:48:43.437Z,39.10
2022-08-11T16:51:13.319Z,40.00
2022-08-11T16:53:59.779Z,38.50
2022-08-11T16:56:42.183Z,39.40
2022-08-11T16:59:19.703Z,39.70
2022-08-11T17:01:59.656Z,39.50
2022-08-11T17:04:55.325Z,39.90
2022-08-11T17:07:43.541Z,40.30
2022-08-11T17:10:53.336Z,40.90
2022-08-11T17:13:48.095Z,41.30
2022-08-11T17:16:20.912Z,39.90
2022-08-11T17:19:00.716Z,40.40
2022-08-11T17:21:57.350Z,40.30
2022-08-11T17:24:27.576Z,41.80
2022-08-11T17:26:59.049Z,42.30
2022-08-11T17:29:55.022Z,42.80
2022-08-11T17:32:55.938Z,42.10
2022-08-11T17:35:38.718Z,42.40
2022-08-11T17:38:18.110Z,42.40
2022-08-11T17:41:23.027Z,41.90
2022-08-11T17:44:11.633Z,42.70
2022-08-11T17:47:02.257Z,43.10
2022-08-11T17:49:37.413Z,42.90
2022-08-11T17:52:25.065Z,42.50
2022-08-11T17:55:13.423Z,42.30
2022-08-11T17:57:59.947Z,42.40
2022-08-11T18:00:27.258Z,42.00
2022-08-11T18:03:14.402Z,42.50
2022-08-11T18:05:49.103Z,42.80
2022-08-11T18:08:37.487Z,43.50
2022-08-11T18:12:00.097Z,45.40
2022-08-11T18:14:31.114Z,44.50
2022-08-11T18:17:18.541Z,44.00
2022-08-11T18:20:08.771Z,43.70
2022-08-11T18:22:59.910Z,43.20
2022-08-11T18:25:49.168Z,42.90
2022-08-11T18:28:39.675Z,42.50
2022-08-11T18:31:29.248Z,42.60
2022-08-11T18:34:19.659Z,42.10
2022-08-11T18:37:21.855Z,42.50
2022-08-11T18:40:22.372Z,43.10
2022-08-11T18:43:09.930Z,43.40
2022-08-11T18:46:06.701Z,43.60
2022-08-11T18:48:55.382Z,43.80
2022-08-11T18:51:44.189Z,44.20
2022-08-11T18:54:33.562Z,44.40
2022-08-11T18:57:22.328Z,45.30
2022-08-11T19:00:11.028Z,46.50
2022-08-11T19:02:58.379Z,46.90
2022-08-11T19:06:32.565Z,47.70
2022-08-11T19:08:59.320Z,48.70
2022-08-11T19:11:46.243Z,49.30
2022-08-11T19:14:33.701Z,50.30
2022-08-11T19:17:43.586Z,50.90
2022-08-11T19:20:31.634Z,51.40
2022-08-11T19:23:18.700Z,51.90
2022-08-11T19:26:06.002Z,52.00
2022-08-11T19:28:55.249Z,52.60
2022-08-11T19:31:44.733Z,53.60
2022-08-11T19:34:37.279Z,53.90
2022-08-11T19:37:25.559Z,54.50
2022-08-11T19:40:13.442Z,54.40
2022-08-11T19:43:01.482Z,55.20
2022-08-11T19:45:52.526Z,55.40
2022-08-11T19:48:43.210Z,56.50
2022-08-11T19:51:29.724Z,56.30
2022-08-11T19:54:16.439Z,57.00
2022-08-11T19:57:03.350Z,57.40
2022-08-11T19:59:50.777Z,58.10
2022-08-11T20:02:36.362Z,58.60
2022-08-11T20:05:24.867Z,59.20
2022-08-11T20:08:14.881Z,60.30
2022-08-11T20:11:00.971Z,61.10
2022-08-11T20:13:48.051Z,62.20
2022-08-11T20:16:38.515Z,62.70
2022-08-11T20:19:25.963Z,63.30
2022-08-11T20:22:32.786Z,63.90
2022-08-11T20:25:29.681Z,64.70
2022-08-11T20:28:15.525Z,65.40
2022-08-11T20:31:05.455Z,66.00
2022-08-11T20:33:52.863Z,66.60
2022-08-11T20:36:38.478Z,67.50
2022-08-11T20:39:25.598Z,67.60
2022-08-11T20:42:12.187Z,67.90
2022-08-11T20:44:59.100Z,68.40
2022-08-11T20:47:59.938Z,68.90
2022-08-11T20:50:47.792Z,69.40
2022-08-11T20:56:44.299Z,70.70
2022-08-11T20:59:33.345Z,71.00
2022-08-11T21:02:35.744Z,71.60
2022-08-11T21:06:09.030Z,72.20
2022-08-11T21:08:27.649Z,72.70
2022-08-11T21:11:14.105Z,73.20
2022-08-11T21:14:14.311Z,73.70
2022-08-11T21:17:26.888Z,74.20
2022-08-11T21:20:18.357Z,74.80
2022-08-11T21:23:24.394Z,75.40
2022-08-11T21:26:26.431Z,75.90
2022-08-11T21:29:14.502Z,76.80
2022-08-11T21:32:00.783Z,77.80
2022-08-11T21:34:47.850Z,77.50
2022-08-11T21:37:36.008Z,78.10
2022-08-11T21:40:22.827Z,78.40
2022-08-11T21:43:09.314Z,78.80
2022-08-11T21:45:56.898Z,79.00
2022-08-11T21:48:47.033Z,79.20
2022-08-11T21:51:32.561Z,79.70
2022-08-11T21:54:19.497Z,79.90
2022-08-11T21:57:05.568Z,79.90
2022-08-11T22:00:11.821Z,80.00
2022-08-11T22:02:58.420Z,80.40
2022-08-11T22:05:45.538Z,80.30
2022-08-11T22:08:31.514Z,80.50
2022-08-11T22:11:31.700Z,80.60
2022-08-11T22:14:20.342Z,80.50
2022-08-11T22:17:05.610Z,80.40
2022-08-11T22:19:55.084Z,80.40
2022-08-11T22:22:49.094Z,80.70
2022-08-11T22:25:55.077Z,81.00
2022-08-11T22:28:45.220Z,81.00
2022-08-11T22:31:31.290Z,81.10
2022-08-11T22:34:16.829Z,81.20
2022-08-11T22:37:04.599Z,81.40
2022-08-11T22:40:02.645Z,81.60
2022-08-11T22:42:50.280Z,81.80
2022-08-11T22:45:36.436Z,81.90
2022-08-11T22:48:24.297Z,82.20
2022-08-11T22:51:10.860Z,82.50
2022-08-11T22:53:59.324Z,82.50
2022-08-11T22:56:49.832Z,82.90
2022-08-11T22:59:37.942Z,83.10
2022-08-11T23:02:25.007Z,83.10
2022-08-11T23:05:11.154Z,83.30
2022-08-11T23:07:57.348Z,83.50
2022-08-11T23:10:43.768Z,83.60
2022-08-11T23:13:29.245Z,83.60
2022-08-11T23:16:15.195Z,83.70
2022-08-11T23:19:01.318Z,83.80
2022-08-11T23:21:48.086Z,83.80
2022-08-11T23:24:35.179Z,83.70
2022-08-11T23:27:22.837Z,84.00
2022-08-11T23:30:11.243Z,84.50
2022-08-11T23:32:57.978Z,84.60
2022-08-11T23:35:51.782Z,84.70
2022-08-11T23:38:42.552Z,85.00
2022-08-11T23:41:28.574Z,85.10
2022-08-11T23:44:14.611Z,85.20
2022-08-11T23:47:01.022Z,85.30
2022-08-11T23:49:46.854Z,85.10
2022-08-11T23:52:34.122Z,84.90
2022-08-11T23:55:20.420Z,85.40
2022-08-11T23:58:06.023Z,85.60
